sensor_id;sensor_type;location;lat;lon;timestamp;pressure;altitude;pressure_sealevel;temperature
15680;BMP180;15488;48.114;11.532;2023-08-17T00:00:12;95504.00;;;29.30
15680;BMP180;15488;48.114;11.532;2023-08-17T00:02:40;95500.00;;;29.30
15680;BMP180;15488;48.114;11.532;2023-08-17T00:05:08;95501.00;;;29.30
15680;BMP180;15488;48.114;11.532;2023-08-17T00:07:35;95502.00;;;29.30
15680;BMP180;15488;48.114;11.532;2023-08-17T00:10:03;95498.00;;;29.30
15680;BMP180;15488;48.114;11.532;2023-08-17T00:12:32;95507.00;;;29.20
15680;BMP180;15488;48.114;11.532;2023-08-17T00:14:59;95509.00;;;29.20
15680;BMP180;15488;48.114;11.532;2023-08-17T00:17:27;95500.00;;;29.20
15680;BMP180;15488;48.114;11.532;2023-08-17T00:19:56;95498.00;;;29.20
15680;BMP180;15488;48.114;11.532;2023-08-17T00:22:23;95496.00;;;29.20
15680;BMP180;15488;48.114;11.532;2023-08-17T00:24:51;95500.00;;;29.10
15680;BMP180;15488;48.114;11.532;2023-08-17T00:27:18;95504.00;;;29.10
15680;BMP180;15488;48.114;11.532;2023-08-17T00:29:47;95497.00;;;29.10
15680;BMP180;15488;48.114;11.532;2023-08-17T00:32:14;95496.00;;;29.10
15680;BMP180;15488;48.114;11.532;2023-08-17T00:34:42;95497.00;;;29.10
15680;BMP180;15488;48.114;11.532;2023-08-17T00:37:09;95496.00;;;29.00
15680;BMP180;15488;48.114;11.532;2023-08-17T00:39:36;95500.00;;;29.00
15680;BMP180;15488;48.114;11.532;2023-08-17T00:42:04;95495.00;;;29.00
15680;BMP180;15488;48.114;11.532;2023-08-17T00:44:34;95501.00;;;29.00
15680;BMP180;15488;48.114;11.532;2023-08-17T00:47:03;95502.00;;;29.00
15680;BMP180;15488;48.114;11.532;2023-08-17T00:49:31;95507.00;;;29.00
15680;BMP180;15488;48.114;11.532;2023-08-17T00:51:58;95505.00;;;28.90
15680;BMP180;15488;48.114;11.532;2023-08-17T00:54:28;95506.00;;;28.90
15680;BMP180;15488;48.114;11.532;2023-08-17T00:56:56;95501.00;;;28.90
15680;BMP180;15488;48.114;11.532;2023-08-17T00:59:25;95497.00;;;28.90
15680;BMP180;15488;48.114;11.532;2023-08-17T01:01:53;95493.00;;;28.90
15680;BMP180;15488;48.114;11.532;2023-08-17T01:04:22;95489.00;;;28.90
15680;BMP180;15488;48.114;11.532;2023-08-17T01:06:50;95495.00;;;28.90
15680;BMP180;15488;48.114;11.532;2023-08-17T01:09:17;95490.00;;;28.90
15680;BMP180;15488;48.114;11.532;2023-08-17T01:11:49;95483.00;;;28.80
15680;BMP180;15488;48.114;11.532;2023-08-17T01:14:23;95481.00;;;28.80
15680;BMP180;15488;48.114;11.532;2023-08-17T01:17:02;95489.00;;;28.80
15680;BMP180;15488;48.114;11.532;2023-08-17T01:19:33;95494.00;;;28.80
15680;BMP180;15488;48.114;11.532;2023-08-17T01:22:03;95495.00;;;28.80
15680;BMP180;15488;48.114;11.532;2023-08-17T01:24:32;95493.00;;;28.80
15680;BMP180;15488;48.114;11.532;2023-08-17T01:27:00;95493.00;;;28.80
15680;BMP180;15488;48.114;11.532;2023-08-17T01:29:27;95501.00;;;28.70
15680;BMP180;15488;48.114;11.532;2023-08-17T01:32:04;95500.00;;;28.70
15680;BMP180;15488;48.114;11.532;2023-08-17T01:34:39;95506.00;;;28.70
15680;BMP180;15488;48.114;11.532;2023-08-17T01:37:08;95496.00;;;28.70
15680;BMP180;15488;48.114;11.532;2023-08-17T01:39:39;95495.00;;;28.70
15680;BMP180;15488;48.114;11.532;2023-08-17T01:42:09;95489.00;;;28.70
15680;BMP180;15488;48.114;11.532;2023-08-17T01:44:38;95487.00;;;28.70
15680;BMP180;15488;48.114;11.532;2023-08-17T01:47:05;95486.00;;;28.70
15680;BMP180;15488;48.114;11.532;2023-08-17T01:49:33;95482.00;;;28.60
15680;BMP180;15488;48.114;11.532;2023-08-17T01:52:00;95482.00;;;28.60
15680;BMP180;15488;48.114;11.532;2023-08-17T01:54:28;95484.00;;;28.60
15680;BMP180;15488;48.114;11.532;2023-08-17T01:56:57;95476.00;;;28.60
15680;BMP180;15488;48.114;11.532;2023-08-17T01:59:25;95475.00;;;28.60
15680;BMP180;15488;48.114;11.532;2023-08-17T02:01:52;95478.00;;;28.60
15680;BMP180;15488;48.114;11.532;2023-08-17T02:04:19;95473.00;;;28.50
15680;BMP180;15488;48.114;11.532;2023-08-17T02:06:47;95475.00;;;28.50
15680;BMP180;15488;48.114;11.532;2023-08-17T02:09:14;95472.00;;;28.50
15680;BMP180;15488;48.114;11.532;2023-08-17T02:11:42;95470.00;;;28.50
15680;BMP180;15488;48.114;11.532;2023-08-17T02:14:10;95469.00;;;28.50
15680;BMP180;15488;48.114;11.532;2023-08-17T02:16:38;95470.00;;;28.50
15680;BMP180;15488;48.114;11.532;2023-08-17T02:19:05;95464.00;;;28.50
15680;BMP180;15488;48.114;11.532;2023-08-17T02:21:33;95467.00;;;28.40
15680;BMP180;15488;48.114;11.532;2023-08-17T02:24:00;95466.00;;;28.40
15680;BMP180;15488;48.114;11.532;2023-08-17T02:26:29;95458.00;;;28.40
15680;BMP180;15488;48.114;11.532;2023-08-17T02:28:56;95463.00;;;28.40
15680;BMP180;15488;48.114;11.532;2023-08-17T02:31:25;95461.00;;;28.30
15680;BMP180;15488;48.114;11.532;2023-08-17T02:33:53;95463.00;;;28.30
15680;BMP180;15488;48.114;11.532;2023-08-17T02:36:24;95462.00;;;28.30
15680;BMP180;15488;48.114;11.532;2023-08-17T02:38:51;95454.00;;;28.20
15680;BMP180;15488;48.114;11.532;2023-08-17T02:41:19;95458.00;;;28.30
15680;BMP180;15488;48.114;11.532;2023-08-17T02:43:47;95460.00;;;28.30
15680;BMP180;15488;48.114;11.532;2023-08-17T02:46:15;95464.00;;;28.30
15680;BMP180;15488;48.114;11.532;2023-08-17T02:48:44;95469.00;;;28.20
15680;BMP180;15488;48.114;11.532;2023-08-17T02:51:11;95454.00;;;28.20
15680;BMP180;15488;48.114;11.532;2023-08-17T02:53:38;95460.00;;;28.20
15680;BMP180;15488;48.114;11.532;2023-08-17T02:56:06;95461.00;;;28.20
15680;BMP180;15488;48.114;11.532;2023-08-17T02:58:36;95465.00;;;28.20
15680;BMP180;15488;48.114;11.532;2023-08-17T03:01:05;95461.00;;;28.20
15680;BMP180;15488;48.114;11.532;2023-08-17T03:03:32;95459.00;;;28.20
15680;BMP180;15488;48.114;11.532;2023-08-17T03:06:01;95460.00;;;28.10
15680;BMP180;15488;48.114;11.532;2023-08-17T03:08:29;95459.00;;;28.20
15680;BMP180;15488;48.114;11.532;2023-08-17T03:10:56;95464.00;;;28.10
15680;BMP180;15488;48.114;11.532;2023-08-17T03:13:24;95461.00;;;28.10
15680;BMP180;15488;48.114;11.532;2023-08-17T03:15:51;95465.00;;;28.10
15680;BMP180;15488;48.114;11.532;2023-08-17T03:18:19;95464.00;;;28.10
15680;BMP180;15488;48.114;11.532;2023-08-17T03:20:46;95465.00;;;28.10
15680;BMP180;15488;48.114;11.532;2023-08-17T03:23:15;95470.00;;;28.10
15680;BMP180;15488;48.114;11.532;2023-08-17T03:25:42;95468.00;;;28.10
15680;BMP180;15488;48.114;11.532;2023-08-17T03:28:11;95472.00;;;28.10
15680;BMP180;15488;48.114;11.532;2023-08-17T03:30:39;95473.00;;;28.10
15680;BMP180;15488;48.114;11.532;2023-08-17T03:33:06;95475.00;;;28.10
15680;BMP180;15488;48.114;11.532;2023-08-17T03:35:34;95474.00;;;28.10
15680;BMP180;15488;48.114;11.532;2023-08-17T03:38:01;95467.00;;;28.10
15680;BMP180;15488;48.114;11.532;2023-08-17T03:40:30;95474.00;;;28.00
15680;BMP180;15488;48.114;11.532;2023-08-17T03:42:58;95477.00;;;28.00
15680;BMP180;15488;48.114;11.532;2023-08-17T03:45:25;95471.00;;;28.00
15680;BMP180;15488;48.114;11.532;2023-08-17T03:47:52;95461.00;;;28.00
15680;BMP180;15488;48.114;11.532;2023-08-17T03:50:20;95468.00;;;28.00
15680;BMP180;15488;48.114;11.532;2023-08-17T03:52:47;95469.00;;;28.00
15680;BMP180;15488;48.114;11.532;2023-08-17T03:55:15;95465.00;;;28.00
15680;BMP180;15488;48.114;11.532;2023-08-17T03:57:44;95469.00;;;28.00
15680;BMP180;15488;48.114;11.532;2023-08-17T04:00:12;95466.00;;;28.00
15680;BMP180;15488;48.114;11.532;2023-08-17T04:02:40;95473.00;;;27.90
15680;BMP180;15488;48.114;11.532;2023-08-17T04:05:07;95469.00;;;27.90
15680;BMP180;15488;48.114;11.532;2023-08-17T04:07:35;95482.00;;;27.90
15680;BMP180;15488;48.114;11.532;2023-08-17T04:10:03;95483.00;;;27.90
15680;BMP180;15488;48.114;11.532;2023-08-17T04:12:32;95477.00;;;27.90
15680;BMP180;15488;48.114;11.532;2023-08-17T04:15:00;95476.00;;;27.80
15680;BMP180;15488;48.114;11.532;2023-08-17T04:17:28;95498.00;;;27.80
15680;BMP180;15488;48.114;11.532;2023-08-17T04:19:56;95461.00;;;27.80
15680;BMP180;15488;48.114;11.532;2023-08-17T04:22:24;95482.00;;;27.80
15680;BMP180;15488;48.114;11.532;2023-08-17T04:24:52;95481.00;;;27.80
15680;BMP180;15488;48.114;11.532;2023-08-17T04:27:19;95490.00;;;27.80
15680;BMP180;15488;48.114;11.532;2023-08-17T04:29:46;95494.00;;;27.80
15680;BMP180;15488;48.114;11.532;2023-08-17T04:32:16;95496.00;;;27.80
15680;BMP180;15488;48.114;11.532;2023-08-17T04:34:44;95495.00;;;27.80
15680;BMP180;15488;48.114;11.532;2023-08-17T04:37:12;95497.00;;;27.80
15680;BMP180;15488;48.114;11.532;2023-08-17T04:39:39;95489.00;;;27.80
15680;BMP180;15488;48.114;11.532;2023-08-17T04:42:07;95502.00;;;27.60
15680;BMP180;15488;48.114;11.532;2023-08-17T04:44:35;95508.00;;;27.80
15680;BMP180;15488;48.114;11.532;2023-08-17T04:47:02;95510.00;;;27.80
15680;BMP180;15488;48.114;11.532;2023-08-17T04:49:31;95510.00;;;27.80
15680;BMP180;15488;48.114;11.532;2023-08-17T04:51:58;95514.00;;;27.80
15680;BMP180;15488;48.114;11.532;2023-08-17T04:54:26;95513.00;;;27.80
15680;BMP180;15488;48.114;11.532;2023-08-17T04:56:53;95514.00;;;27.80
15680;BMP180;15488;48.114;11.532;2023-08-17T04:59:21;95513.00;;;27.80
15680;BMP180;15488;48.114;11.532;2023-08-17T05:01:48;95508.00;;;27.70
15680;BMP180;15488;48.114;11.532;2023-08-17T05:04:16;95506.00;;;27.80
15680;BMP180;15488;48.114;11.532;2023-08-17T05:06:44;95502.00;;;27.70
15680;BMP180;15488;48.114;11.532;2023-08-17T05:09:12;95505.00;;;27.80
15680;BMP180;15488;48.114;11.532;2023-08-17T05:11:39;95509.00;;;27.80
15680;BMP180;15488;48.114;11.532;2023-08-17T05:14:07;95518.00;;;27.70
15680;BMP180;15488;48.114;11.532;2023-08-17T05:16:35;95510.00;;;27.80
15680;BMP180;15488;48.114;11.532;2023-08-17T05:19:02;95507.00;;;27.70
15680;BMP180;15488;48.114;11.532;2023-08-17T05:21:30;95512.00;;;27.80
15680;BMP180;15488;48.114;11.532;2023-08-17T05:23:59;95510.00;;;27.70
15680;BMP180;15488;48.114;11.532;2023-08-17T05:26:26;95516.00;;;27.80
15680;BMP180;15488;48.114;11.532;2023-08-17T05:28:54;95514.00;;;27.80
15680;BMP180;15488;48.114;11.532;2023-08-17T05:31:21;95508.00;;;27.80
15680;BMP180;15488;48.114;11.532;2023-08-17T05:33:48;95517.00;;;27.80
15680;BMP180;15488;48.114;11.532;2023-08-17T05:36:16;95513.00;;;27.80
15680;BMP180;15488;48.114;11.532;2023-08-17T05:38:43;95525.00;;;27.80
15680;BMP180;15488;48.114;11.532;2023-08-17T05:41:12;95513.00;;;27.80
15680;BMP180;15488;48.114;11.532;2023-08-17T05:43:39;95512.00;;;27.90
15680;BMP180;15488;48.114;11.532;2023-08-17T05:46:07;95518.00;;;27.90
15680;BMP180;15488;48.114;11.532;2023-08-17T05:48:34;95514.00;;;27.90
15680;BMP180;15488;48.114;11.532;2023-08-17T05:51:02;95516.00;;;27.60
15680;BMP180;15488;48.114;11.532;2023-08-17T05:53:29;95511.00;;;28.00
15680;BMP180;15488;48.114;11.532;2023-08-17T05:55:56;95512.00;;;28.00
15680;BMP180;15488;48.114;11.532;2023-08-17T05:58:25;95514.00;;;28.00
15680;BMP180;15488;48.114;11.532;2023-08-17T06:00:53;95516.00;;;28.10
15680;BMP180;15488;48.114;11.532;2023-08-17T06:03:20;95483.00;;;28.10
15680;BMP180;15488;48.114;11.532;2023-08-17T06:05:47;95529.00;;;28.10
15680;BMP180;15488;48.114;11.532;2023-08-17T06:08:15;95526.00;;;28.20
15680;BMP180;15488;48.114;11.532;2023-08-17T06:10:42;95523.00;;;28.20
15680;BMP180;15488;48.114;11.532;2023-08-17T06:13:10;95516.00;;;28.20
15680;BMP180;15488;48.114;11.532;2023-08-17T06:15:38;95518.00;;;28.20
15680;BMP180;15488;48.114;11.532;2023-08-17T06:18:06;95520.00;;;28.30
15680;BMP180;15488;48.114;11.532;2023-08-17T06:20:33;95523.00;;;28.30
15680;BMP180;15488;48.114;11.532;2023-08-17T06:23:01;95519.00;;;28.40
15680;BMP180;15488;48.114;11.532;2023-08-17T06:25:28;95522.00;;;28.40
15680;BMP180;15488;48.114;11.532;2023-08-17T06:27:56;95526.00;;;28.40
15680;BMP180;15488;48.114;11.532;2023-08-17T06:30:23;95525.00;;;28.50
15680;BMP180;15488;48.114;11.532;2023-08-17T06:32:52;95519.00;;;28.50
15680;BMP180;15488;48.114;11.532;2023-08-17T06:35:20;95523.00;;;28.50
15680;BMP180;15488;48.114;11.532;2023-08-17T06:37:47;95519.00;;;28.60
15680;BMP180;15488;48.114;11.532;2023-08-17T06:40:15;95526.00;;;28.60
15680;BMP180;15488;48.114;11.532;2023-08-17T06:42:42;95523.00;;;28.60
15680;BMP180;15488;48.114;11.532;2023-08-17T06:45:10;95524.00;;;28.60
15680;BMP180;15488;48.114;11.532;2023-08-17T06:47:37;95522.00;;;28.70
15680;BMP180;15488;48.114;11.532;2023-08-17T06:50:06;95519.00;;;28.70
15680;BMP180;15488;48.114;11.532;2023-08-17T06:52:34;95525.00;;;28.70
15680;BMP180;15488;48.114;11.532;2023-08-17T06:55:02;95522.00;;;28.80
15680;BMP180;15488;48.114;11.532;2023-08-17T06:57:29;95525.00;;;28.80
15680;BMP180;15488;48.114;11.532;2023-08-17T06:59:57;95523.00;;;28.80
15680;BMP180;15488;48.114;11.532;2023-08-17T07:02:24;95520.00;;;28.90
15680;BMP180;15488;48.114;11.532;2023-08-17T07:04:52;95519.00;;;28.90
15680;BMP180;15488;48.114;11.532;2023-08-17T07:07:20;95522.00;;;28.90
15680;BMP180;15488;48.114;11.532;2023-08-17T07:09:48;95527.00;;;29.00
15680;BMP180;15488;48.114;11.532;2023-08-17T07:12:15;95528.00;;;29.00
15680;BMP180;15488;48.114;11.532;2023-08-17T07:14:43;95528.00;;;29.10
15680;BMP180;15488;48.114;11.532;2023-08-17T07:17:10;95527.00;;;29.10
15680;BMP180;15488;48.114;11.532;2023-08-17T07:19:38;95525.00;;;29.10
15680;BMP180;15488;48.114;11.532;2023-08-17T07:22:05;95526.00;;;29.20
15680;BMP180;15488;48.114;11.532;2023-08-17T07:24:34;95529.00;;;29.20
15680;BMP180;15488;48.114;11.532;2023-08-17T07:27:02;95534.00;;;29.30
15680;BMP180;15488;48.114;11.532;2023-08-17T07:29:29;95532.00;;;29.30
15680;BMP180;15488;48.114;11.532;2023-08-17T07:31:57;95547.00;;;29.30
15680;BMP180;15488;48.114;11.532;2023-08-17T07:34:28;95541.00;;;29.40
15680;BMP180;15488;48.114;11.532;2023-08-17T07:36:56;95534.00;;;29.40
15680;BMP180;15488;48.114;11.532;2023-08-17T07:39:23;95534.00;;;29.40
15680;BMP180;15488;48.114;11.532;2023-08-17T07:41:52;95503.00;;;29.50
15680;BMP180;15488;48.114;11.532;2023-08-17T07:44:20;95535.00;;;29.50
15680;BMP180;15488;48.114;11.532;2023-08-17T07:46:47;95540.00;;;29.60
15680;BMP180;15488;48.114;11.532;2023-08-17T07:49:15;95537.00;;;29.60
15680;BMP180;15488;48.114;11.532;2023-08-17T07:51:42;95537.00;;;29.70
15680;BMP180;15488;48.114;11.532;2023-08-17T07:54:10;95535.00;;;29.70
15680;BMP180;15488;48.114;11.532;2023-08-17T07:56:37;95540.00;;;29.80
15680;BMP180;15488;48.114;11.532;2023-08-17T07:59:06;95534.00;;;29.80
15680;BMP180;15488;48.114;11.532;2023-08-17T08:01:33;95532.00;;;29.80
15680;BMP180;15488;48.114;11.532;2023-08-17T08:04:01;95531.00;;;29.90
15680;BMP180;15488;48.114;11.532;2023-08-17T08:06:28;95530.00;;;29.90
15680;BMP180;15488;48.114;11.532;2023-08-17T08:08:56;95528.00;;;30.00
15680;BMP180;15488;48.114;11.532;2023-08-17T08:11:23;95532.00;;;30.10
15680;BMP180;15488;48.114;11.532;2023-08-17T08:13:51;95530.00;;;30.10
15680;BMP180;15488;48.114;11.532;2023-08-17T08:16:19;95527.00;;;30.10
15680;BMP180;15488;48.114;11.532;2023-08-17T08:18:47;95525.00;;;30.20
15680;BMP180;15488;48.114;11.532;2023-08-17T08:21:14;95530.00;;;30.30
15680;BMP180;15488;48.114;11.532;2023-08-17T08:23:42;95527.00;;;30.30
15680;BMP180;15488;48.114;11.532;2023-08-17T08:26:09;95524.00;;;30.40
15680;BMP180;15488;48.114;11.532;2023-08-17T08:28:36;95520.00;;;30.40
15680;BMP180;15488;48.114;11.532;2023-08-17T08:31:04;95523.00;;;30.50
15680;BMP180;15488;48.114;11.532;2023-08-17T08:33:33;95515.00;;;30.50
15680;BMP180;15488;48.114;11.532;2023-08-17T08:36:00;95521.00;;;30.60
15680;BMP180;15488;48.114;11.532;2023-08-17T08:38:28;95523.00;;;30.70
15680;BMP180;15488;48.114;11.532;2023-08-17T08:40:55;95526.00;;;30.70
15680;BMP180;15488;48.114;11.532;2023-08-17T08:43:24;95526.00;;;30.70
15680;BMP180;15488;48.114;11.532;2023-08-17T08:45:51;95518.00;;;30.80
15680;BMP180;15488;48.114;11.532;2023-08-17T08:48:22;95521.00;;;30.90
15680;BMP180;15488;48.114;11.532;2023-08-17T08:50:55;95527.00;;;30.90
15680;BMP180;15488;48.114;11.532;2023-08-17T08:53:31;95529.00;;;31.00
15680;BMP180;15488;48.114;11.532;2023-08-17T08:56:00;95524.00;;;31.10
15680;BMP180;15488;48.114;11.532;2023-08-17T08:58:29;95522.00;;;31.10
15680;BMP180;15488;48.114;11.532;2023-08-17T09:00:58;95518.00;;;31.20
15680;BMP180;15488;48.114;11.532;2023-08-17T09:03:27;95527.00;;;31.20
15680;BMP180;15488;48.114;11.532;2023-08-17T09:05:57;95525.00;;;31.30
15680;BMP180;15488;48.114;11.532;2023-08-17T09:08:27;95522.00;;;31.30
15680;BMP180;15488;48.114;11.532;2023-08-17T09:10:54;95511.00;;;31.40
15680;BMP180;15488;48.114;11.532;2023-08-17T09:13:22;95513.00;;;31.40
15680;BMP180;15488;48.114;11.532;2023-08-17T09:15:49;95510.00;;;31.50
15680;BMP180;15488;48.114;11.532;2023-08-17T09:18:17;95506.00;;;31.50
15680;BMP180;15488;48.114;11.532;2023-08-17T09:20:46;95508.00;;;31.60
15680;BMP180;15488;48.114;11.532;2023-08-17T09:23:16;95501.00;;;31.70
15680;BMP180;15488;48.114;11.532;2023-08-17T09:25:46;95498.00;;;31.80
15680;BMP180;15488;48.114;11.532;2023-08-17T09:28:15;95496.00;;;31.80
15680;BMP180;15488;48.114;11.532;2023-08-17T09:30:53;95497.00;;;31.90
15680;BMP180;15488;48.114;11.532;2023-08-17T09:33:22;95502.00;;;31.90
15680;BMP180;15488;48.114;11.532;2023-08-17T09:35:50;95505.00;;;32.00
15680;BMP180;15488;48.114;11.532;2023-08-17T09:38:19;95502.00;;;32.00
15680;BMP180;15488;48.114;11.532;2023-08-17T09:40:47;95504.00;;;32.10
15680;BMP180;15488;48.114;11.532;2023-08-17T09:43:14;95500.00;;;32.20
15680;BMP180;15488;48.114;11.532;2023-08-17T09:45:44;95499.00;;;32.20
15680;BMP180;15488;48.114;11.532;2023-08-17T09:48:15;95501.00;;;32.30
15680;BMP180;15488;48.114;11.532;2023-08-17T09:50:43;95498.00;;;32.30
15680;BMP180;15488;48.114;11.532;2023-08-17T09:53:13;95500.00;;;32.40
15680;BMP180;15488;48.114;11.532;2023-08-17T09:55:43;95494.00;;;32.50
15680;BMP180;15488;48.114;11.532;2023-08-17T09:58:11;95483.00;;;32.50
15680;BMP180;15488;48.114;11.532;2023-08-17T10:00:44;95491.00;;;32.60
15680;BMP180;15488;48.114;11.532;2023-08-17T10:03:14;95494.00;;;32.70
15680;BMP180;15488;48.114;11.532;2023-08-17T10:05:44;95490.00;;;32.70
15680;BMP180;15488;48.114;11.532;2023-08-17T10:08:13;95496.00;;;32.70
15680;BMP180;15488;48.114;11.532;2023-08-17T10:10:45;95493.00;;;32.80
15680;BMP180;15488;48.114;11.532;2023-08-17T10:13:16;95485.00;;;32.90
15680;BMP180;15488;48.114;11.532;2023-08-17T10:15:59;95491.00;;;33.00
15680;BMP180;15488;48.114;11.532;2023-08-17T10:18:34;95489.00;;;33.10
15680;BMP180;15488;48.114;11.532;2023-08-17T10:21:06;95488.00;;;33.10
15680;BMP180;15488;48.114;11.532;2023-08-17T10:23:34;95488.00;;;33.20
15680;BMP180;15488;48.114;11.532;2023-08-17T10:26:03;95484.00;;;33.20
15680;BMP180;15488;48.114;11.532;2023-08-17T10:28:32;95496.00;;;33.30
15680;BMP180;15488;48.114;11.532;2023-08-17T10:30:59;95490.00;;;33.40
15680;BMP180;15488;48.114;11.532;2023-08-17T10:33:28;95489.00;;;33.40
15680;BMP180;15488;48.114;11.532;2023-08-17T10:35:56;95491.00;;;33.40
15680;BMP180;15488;48.114;11.532;2023-08-17T10:38:24;95493.00;;;33.60
15680;BMP180;15488;48.114;11.532;2023-08-17T10:41:08;95487.00;;;33.60
15680;BMP180;15488;48.114;11.532;2023-08-17T10:43:54;95490.00;;;33.70
15680;BMP180;15488;48.114;11.532;2023-08-17T10:46:22;95486.00;;;33.80
15680;BMP180;15488;48.114;11.532;2023-08-17T10:49:03;95481.00;;;33.80
15680;BMP180;15488;48.114;11.532;2023-08-17T10:51:31;95487.00;;;33.90
15680;BMP180;15488;48.114;11.532;2023-08-17T10:54:01;95489.00;;;34.00
15680;BMP180;15488;48.114;11.532;2023-08-17T10:56:30;95492.00;;;34.00
15680;BMP180;15488;48.114;11.532;2023-08-17T10:59:01;95483.00;;;34.10
15680;BMP180;15488;48.114;11.532;2023-08-17T11:01:33;95479.00;;;34.20
15680;BMP180;15488;48.114;11.532;2023-08-17T11:04:12;95491.00;;;34.30
15680;BMP180;15488;48.114;11.532;2023-08-17T11:06:41;95484.00;;;34.30
15680;BMP180;15488;48.114;11.532;2023-08-17T11:09:09;95481.00;;;34.30
15680;BMP180;15488;48.114;11.532;2023-08-17T11:11:39;95483.00;;;34.30
15680;BMP180;15488;48.114;11.532;2023-08-17T11:14:06;95477.00;;;34.40
15680;BMP180;15488;48.114;11.532;2023-08-17T11:16:34;95478.00;;;34.40
15680;BMP180;15488;48.114;11.532;2023-08-17T11:19:01;95474.00;;;34.40
15680;BMP180;15488;48.114;11.532;2023-08-17T11:21:29;95470.00;;;34.40
15680;BMP180;15488;48.114;11.532;2023-08-17T11:23:57;95474.00;;;34.50
15680;BMP180;15488;48.114;11.532;2023-08-17T11:26:25;95463.00;;;34.50
15680;BMP180;15488;48.114;11.532;2023-08-17T11:28:55;95468.00;;;34.50
15680;BMP180;15488;48.114;11.532;2023-08-17T11:31:22;95469.00;;;34.60
15680;BMP180;15488;48.114;11.532;2023-08-17T11:33:50;95472.00;;;34.60
15680;BMP180;15488;48.114;11.532;2023-08-17T11:36:17;95467.00;;;34.60
15680;BMP180;15488;48.114;11.532;2023-08-17T11:38:45;95467.00;;;34.60
15680;BMP180;15488;48.114;11.532;2023-08-17T11:41:13;95466.00;;;34.60
15680;BMP180;15488;48.114;11.532;2023-08-17T11:43:43;95464.00;;;34.60
15680;BMP180;15488;48.114;11.532;2023-08-17T11:46:12;95460.00;;;34.70
15680;BMP180;15488;48.114;11.532;2023-08-17T11:48:40;95451.00;;;34.70
15680;BMP180;15488;48.114;11.532;2023-08-17T11:51:07;95450.00;;;34.80
15680;BMP180;15488;48.114;11.532;2023-08-17T11:53:36;95441.00;;;34.80
15680;BMP180;15488;48.114;11.532;2023-08-17T11:56:05;95440.00;;;34.90
15680;BMP180;15488;48.114;11.532;2023-08-17T11:58:42;95439.00;;;35.00
15680;BMP180;15488;48.114;11.532;2023-08-17T12:01:12;95440.00;;;35.00
15680;BMP180;15488;48.114;11.532;2023-08-17T12:03:42;95433.00;;;35.10
15680;BMP180;15488;48.114;11.532;2023-08-17T12:06:10;95440.00;;;35.10
15680;BMP180;15488;48.114;11.532;2023-08-17T12:08:40;95442.00;;;35.20
15680;BMP180;15488;48.114;11.532;2023-08-17T12:11:08;95442.00;;;35.30
15680;BMP180;15488;48.114;11.532;2023-08-17T12:13:35;95438.00;;;35.40
15680;BMP180;15488;48.114;11.532;2023-08-17T12:16:03;95434.00;;;35.50
15680;BMP180;15488;48.114;11.532;2023-08-17T12:18:34;95424.00;;;35.60
15680;BMP180;15488;48.114;11.532;2023-08-17T12:21:04;95432.00;;;35.70
15680;BMP180;15488;48.114;11.532;2023-08-17T12:23:33;95425.00;;;35.90
15680;BMP180;15488;48.114;11.532;2023-08-17T12:26:00;95421.00;;;35.90
15680;BMP180;15488;48.114;11.532;2023-08-17T12:28:28;95422.00;;;36.10
15680;BMP180;15488;48.114;11.532;2023-08-17T12:31:00;95417.00;;;36.10
15680;BMP180;15488;48.114;11.532;2023-08-17T12:33:28;95420.00;;;36.30
15680;BMP180;15488;48.114;11.532;2023-08-17T12:35:57;95403.00;;;36.40
15680;BMP180;15488;48.114;11.532;2023-08-17T12:38:25;95401.00;;;36.50
15680;BMP180;15488;48.114;11.532;2023-08-17T12:40:53;95400.00;;;36.60
15680;BMP180;15488;48.114;11.532;2023-08-17T12:43:20;95400.00;;;36.70
15680;BMP180;15488;48.114;11.532;2023-08-17T12:45:48;95397.00;;;36.80
15680;BMP180;15488;48.114;11.532;2023-08-17T12:48:17;95396.00;;;36.90
15680;BMP180;15488;48.114;11.532;2023-08-17T12:50:45;95396.00;;;37.10
15680;BMP180;15488;48.114;11.532;2023-08-17T12:53:14;95397.00;;;37.20
15680;BMP180;15488;48.114;11.532;2023-08-17T12:55:41;95392.00;;;37.40
15680;BMP180;15488;48.114;11.532;2023-08-17T12:58:09;95390.00;;;37.50
15680;BMP180;15488;48.114;11.532;2023-08-17T13:00:36;95384.00;;;37.70
15680;BMP180;15488;48.114;11.532;2023-08-17T13:03:04;95389.00;;;37.80
15680;BMP180;15488;48.114;11.532;2023-08-17T13:05:32;95391.00;;;38.00
15680;BMP180;15488;48.114;11.532;2023-08-17T13:08:00;95387.00;;;38.10
15680;BMP180;15488;48.114;11.532;2023-08-17T13:10:29;95384.00;;;38.30
15680;BMP180;15488;48.114;11.532;2023-08-17T13:12:57;95382.00;;;38.60
15680;BMP180;15488;48.114;11.532;2023-08-17T13:15:25;95383.00;;;38.80
15680;BMP180;15488;48.114;11.532;2023-08-17T13:17:53;95383.00;;;39.10
15680;BMP180;15488;48.114;11.532;2023-08-17T13:20:20;95382.00;;;39.40
15680;BMP180;15488;48.114;11.532;2023-08-17T13:22:48;95381.00;;;39.70
15680;BMP180;15488;48.114;11.532;2023-08-17T13:25:15;95384.00;;;40.10
15680;BMP180;15488;48.114;11.532;2023-08-17T13:27:44;95371.00;;;40.40
15680;BMP180;15488;48.114;11.532;2023-08-17T13:30:12;95379.00;;;40.90
15680;BMP180;15488;48.114;11.532;2023-08-17T13:32:39;95372.00;;;41.30
15680;BMP180;15488;48.114;11.532;2023-08-17T13:35:07;95372.00;;;41.60
15680;BMP180;15488;48.114;11.532;2023-08-17T13:37:37;95369.00;;;41.90
15680;BMP180;15488;48.114;11.532;2023-08-17T13:40:05;95375.00;;;41.90
15680;BMP180;15488;48.114;11.532;2023-08-17T13:42:33;95369.00;;;41.90
15680;BMP180;15488;48.114;11.532;2023-08-17T13:45:02;95370.00;;;41.80
15680;BMP180;15488;48.114;11.532;2023-08-17T13:47:29;95368.00;;;41.70
15680;BMP180;15488;48.114;11.532;2023-08-17T13:49:57;95370.00;;;41.50
15680;BMP180;15488;48.114;11.532;2023-08-17T13:52:24;95371.00;;;41.30
15680;BMP180;15488;48.114;11.532;2023-08-17T13:54:52;95374.00;;;41.00
15680;BMP180;15488;48.114;11.532;2023-08-17T13:57:19;95380.00;;;40.80
15680;BMP180;15488;48.114;11.532;2023-08-17T13:59:47;95372.00;;;40.50
15680;BMP180;15488;48.114;11.532;2023-08-17T14:02:15;95367.00;;;40.30